Time;durP1;ratioP1;P1;durP2;ratioP2;P2;SDS_P1;SDS_P2;PMS_P1;PMS_P2;Temp;Humidity;BMP_temperature;BMP_pressure;BME280_temperature;BME280_humidity;BME280_pressure;Samples;Min_cycle;Max_cycle;Signal;HPM_P1;HPM_P2
2022/03/22 00:00:39;;;;;;;14.05;11.50;;;10.30;40.50;;;;;;5054182;28;20221;-66
2022/03/22 00:03:06;;;;;;;18.77;12.18;;;10.30;40.60;;;;;;5053012;28;20569;-66
2022/03/22 00:05:39;;;;;;;15.00;12.55;;;10.30;40.70;;;;;;5054156;28;20228;-66
2022/03/22 00:08:07;;;;;;;12.93;11.45;;;10.30;40.70;;;;;;5054574;28;20717;-67
2022/03/22 00:10:33;;;;;;;14.73;13.13;;;10.30;40.80;;;;;;5053409;28;20228;-65
2022/03/22 00:13:00;;;;;;;13.80;12.32;;;10.20;40.70;;;;;;5054094;28;20224;-65
2022/03/22 00:15:27;;;;;;;18.45;13.30;;;10.20;40.80;;;;;;5054157;28;20224;-65
2022/03/22 00:17:54;;;;;;;16.38;12.82;;;10.30;40.90;;;;;;5053106;28;20220;-66
2022/03/22 00:20:21;;;;;;;13.48;12.18;;;10.20;40.80;;;;;;5049924;28;20235;-65
2022/03/22 00:22:49;;;;;;;13.10;11.00;;;10.20;40.80;;;;;;5053041;28;20232;-65
2022/03/22 00:25:17;;;;;;;16.23;12.20;;;10.20;40.90;;;;;;5048708;28;20221;-66
2022/03/22 00:27:57;;;;;;;13.13;11.27;;;10.20;40.90;;;;;;5053385;28;20753;-65
2022/03/22 00:30:26;;;;;;;12.60;10.93;;;10.20;40.80;;;;;;5054042;28;20232;-66
2022/03/22 00:32:55;;;;;;;14.00;11.85;;;10.20;40.80;;;;;;5053711;28;20229;-66
2022/03/22 00:35:23;;;;;;;13.38;11.98;;;10.20;40.90;;;;;;5053881;28;20225;-66
2022/03/22 00:37:53;;;;;;;13.43;11.85;;;10.20;41.00;;;;;;5053882;28;20229;-66
2022/03/22 00:40:21;;;;;;;14.73;11.63;;;10.20;41.00;;;;;;5053902;28;20820;-66
2022/03/22 00:42:52;;;;;;;15.65;11.88;;;10.10;41.10;;;;;;5053724;28;20232;-66
2022/03/22 00:45:23;;;;;;;12.93;10.60;;;10.10;41.10;;;;;;5053956;28;20248;-66
2022/03/22 00:47:51;;;;;;;13.27;11.70;;;10.10;41.30;;;;;;5053775;28;20685;-66
2022/03/22 00:50:22;;;;;;;18.02;13.95;;;10.10;41.20;;;;;;5053558;28;20220;-66
2022/03/22 00:52:49;;;;;;;14.60;13.15;;;10.10;41.30;;;;;;5045127;28;20217;-66
2022/03/22 00:55:17;;;;;;;17.27;12.23;;;10.10;41.30;;;;;;5051581;28;20220;-66
2022/03/22 00:57:44;;;;;;;16.23;13.10;;;10.00;41.20;;;;;;5053281;28;20233;-65
2022/03/22 01:00:14;;;;;;;19.25;13.85;;;10.00;41.40;;;;;;5053146;28;20682;-65
2022/03/22 01:02:43;;;;;;;17.98;14.52;;;10.00;41.60;;;;;;5053019;28;20217;-65
2022/03/22 01:05:13;;;;;;;20.10;14.45;;;9.90;42.40;;;;;;5053572;28;20220;-65
2022/03/22 01:07:41;;;;;;;14.20;11.25;;;9.90;42.50;;;;;;5053268;28;20623;-65
2022/03/22 01:10:10;;;;;;;13.05;11.73;;;9.90;42.60;;;;;;5053221;28;20345;-65
2022/03/22 01:12:40;;;;;;;12.60;11.25;;;9.80;42.60;;;;;;5053085;28;20224;-66
2022/03/22 01:15:10;;;;;;;14.25;12.27;;;9.80;42.70;;;;;;5052337;28;20565;-66
2022/03/22 01:17:37;;;;;;;13.38;11.55;;;9.80;43.00;;;;;;5053115;28;20540;-66
2022/03/22 01:20:06;;;;;;;16.63;12.43;;;9.70;42.90;;;;;;5052328;28;20247;-65
2022/03/22 01:22:33;;;;;;;13.75;11.43;;;9.70;43.00;;;;;;5052853;28;20690;-66
2022/03/22 01:25:00;;;;;;;15.70;12.50;;;9.70;43.10;;;;;;5046254;28;20232;-66
2022/03/22 01:27:27;;;;;;;14.73;12.05;;;9.70;43.20;;;;;;5052703;28;20224;-66
2022/03/22 01:29:55;;;;;;;18.02;15.18;;;9.70;43.20;;;;;;5052614;28;20231;-65
2022/03/22 01:32:22;;;;;;;14.60;13.00;;;9.70;43.30;;;;;;5052551;28;20705;-66
2022/03/22 01:34:49;;;;;;;17.30;12.82;;;9.70;43.40;;;;;;5052601;28;20705;-66
2022/03/22 01:37:16;;;;;;;17.25;12.52;;;9.60;43.40;;;;;;5052376;28;20224;-66
2022/03/22 01:39:43;;;;;;;14.52;12.43;;;9.60;43.50;;;;;;5052683;28;20232;-66
2022/03/22 01:42:10;;;;;;;13.23;11.80;;;9.60;44.20;;;;;;5052929;28;20243;-67
2022/03/22 01:44:37;;;;;;;13.30;12.00;;;9.60;43.70;;;;;;5052741;28;20612;-66
2022/03/22 01:47:06;;;;;;;14.95;12.85;;;9.60;43.90;;;;;;5053077;28;20225;-66
2022/03/22 01:49:33;;;;;;;20.00;12.52;;;9.50;43.90;;;;;;5052816;28;20224;-66
2022/03/22 01:52:01;;;;;;;16.52;12.55;;;9.50;44.00;;;;;;5051776;28;20306;-66
2022/03/22 01:54:28;;;;;;;16.92;12.00;;;9.50;44.10;;;;;;5052052;28;20220;-66
2022/03/22 01:56:54;;;;;;;15.05;12.60;;;9.50;44.20;;;;;;5051515;28;20671;-66
2022/03/22 01:59:21;;;;;;;14.98;13.45;;;9.40;44.30;;;;;;5052083;28;20219;-66
2022/03/22 02:07:21;;;;;;;15.02;13.07;;;9.30;44.40;;;;;;5052551;28;20294;-66
2022/03/22 02:09:49;;;;;;;18.08;12.23;;;9.30;44.20;;;;;;5052096;28;20221;-66
2022/03/22 02:12:16;;;;;;;17.05;12.20;;;9.20;44.10;;;;;;5052653;28;20236;-66
2022/03/22 02:14:43;;;;;;;17.95;13.35;;;9.20;44.10;;;;;;5067690;28;20216;-66
2022/03/22 02:17:10;;;;;;;14.40;12.68;;;9.10;44.10;;;;;;5072547;28;20220;-66
2022/03/22 02:19:40;;;;;;;14.05;12.68;;;9.10;44.10;;;;;;5063046;28;20680;-66
2022/03/22 02:22:11;;;;;;;15.77;13.07;;;9.10;44.20;;;;;;5032204;28;20225;-66
2022/03/22 02:24:40;;;;;;;15.50;13.73;;;9.10;44.20;;;;;;5032032;28;20304;-67
2022/03/22 02:27:08;;;;;;;19.25;12.00;;;9.10;44.30;;;;;;5047554;28;20224;-65
2022/03/22 02:29:35;;;;;;;15.88;12.60;;;9.00;44.30;;;;;;5052016;28;20221;-67
2022/03/22 02:32:02;;;;;;;18.45;12.82;;;9.00;44.30;;;;;;5052355;28;20235;-66
2022/03/22 02:34:30;;;;;;;16.05;13.70;;;9.00;44.30;;;;;;5051922;28;20232;-66
2022/03/22 02:36:57;;;;;;;15.32;11.90;;;9.00;44.50;;;;;;5052249;28;20300;-66
2022/03/22 02:39:24;;;;;;;15.05;12.73;;;9.00;44.50;;;;;;5051956;28;20255;-66
2022/03/22 02:41:52;;;;;;;13.48;12.13;;;8.90;44.60;;;;;;5052282;28;20239;-66
2022/03/22 02:44:20;;;;;;;15.15;13.52;;;8.90;44.60;;;;;;5052331;28;20228;-66
2022/03/22 02:46:47;;;;;;;14.52;13.02;;;8.90;44.60;;;;;;5052116;28;20228;-66
2022/03/22 02:49:14;;;;;;;15.48;13.77;;;8.80;44.60;;;;;;5052469;28;20236;-66
2022/03/22 02:51:41;;;;;;;15.48;12.93;;;8.80;44.60;;;;;;5043963;28;20226;-66
2022/03/22 02:54:08;;;;;;;14.23;12.73;;;8.70;44.60;;;;;;5032468;28;20691;-66
2022/03/22 02:56:35;;;;;;;14.55;12.68;;;8.70;44.60;;;;;;5031908;28;20221;-66
2022/03/22 02:59:04;;;;;;;16.65;13.50;;;8.70;44.70;;;;;;5032205;28;20694;-66
2022/03/22 03:01:32;;;;;;;13.55;10.98;;;8.70;44.80;;;;;;5031663;28;20230;-66
2022/03/22 03:04:00;;;;;;;16.98;12.07;;;8.60;44.90;;;;;;5032153;28;20232;-66
2022/03/22 03:06:28;;;;;;;17.05;12.02;;;8.50;44.90;;;;;;5031956;28;20222;-66
2022/03/22 03:08:56;;;;;;;16.02;11.60;;;8.50;44.90;;;;;;5032011;28;20232;-67
2022/03/22 03:11:22;;;;;;;20.80;13.50;;;8.50;45.00;;;;;;5032101;28;20221;-67
2022/03/22 03:16:35;;;;;;;14.45;12.30;;;8.50;45.10;;;;;;5071544;28;20246;-66
2022/03/22 03:19:01;;;;;;;16.13;12.20;;;8.50;45.10;;;;;;5072179;28;20219;-66
2022/03/22 03:21:28;;;;;;;13.52;12.05;;;8.50;45.10;;;;;;5031985;28;20237;-65
2022/03/22 03:23:55;;;;;;;14.05;12.57;;;8.60;45.20;;;;;;5035774;28;20222;-65
2022/03/22 03:26:22;;;;;;;15.30;11.70;;;8.60;45.20;;;;;;5044378;28;20221;-66
2022/03/22 03:28:49;;;;;;;14.15;12.60;;;8.60;45.20;;;;;;5055149;28;20216;-66
2022/03/22 03:31:16;;;;;;;13.45;12.02;;;8.60;45.30;;;;;;5055452;28;20220;-66
2022/03/22 03:33:45;;;;;;;18.50;12.10;;;8.60;45.30;;;;;;5055004;28;20221;-65
2022/03/22 03:36:11;;;;;;;15.75;14.13;;;8.60;45.20;;;;;;5055415;28;20232;-66
2022/03/22 03:38:41;;;;;;;13.15;11.85;;;8.50;45.20;;;;;;5055121;28;20225;-66
2022/03/22 03:43:56;;;;;;;15.98;13.05;;;8.50;45.00;;;;;;5055194;28;20242;-66
2022/03/22 03:49:08;;;;;;;17.27;13.43;;;8.30;45.20;;;;;;5055603;28;20219;-66
2022/03/22 03:51:35;;;;;;;17.13;13.68;;;8.20;45.40;;;;;;5047954;28;20680;-66
2022/03/22 03:54:02;;;;;;;15.32;13.73;;;8.20;45.40;;;;;;5035255;28;20308;-66
2022/03/22 03:56:29;;;;;;;17.15;13.27;;;8.10;45.60;;;;;;5034777;28;20277;-66
2022/03/22 03:58:57;;;;;;;16.63;14.10;;;8.10;45.70;;;;;;5035071;28;20225;-66
2022/03/22 04:01:25;;;;;;;16.15;12.18;;;8.00;45.70;;;;;;5034750;28;20237;-66
2022/03/22 04:03:51;;;;;;;16.95;13.82;;;8.00;45.70;;;;;;5035084;28;20537;-66
2022/03/22 04:06:20;;;;;;;19.60;14.70;;;8.00;45.70;;;;;;5034565;28;20225;-66
2022/03/22 04:08:46;;;;;;;13.88;12.45;;;7.90;45.60;;;;;;5035036;28;20229;-66
2022/03/22 04:11:13;;;;;;;14.68;12.00;;;7.80;45.70;;;;;;5034374;28;20241;-66
2022/03/22 04:13:40;;;;;;;14.57;11.50;;;7.90;45.70;;;;;;5048648;28;20226;-66
2022/03/22 04:16:07;;;;;;;14.48;11.65;;;7.90;45.80;;;;;;5074925;28;20687;-66
2022/03/22 04:18:34;;;;;;;13.52;12.10;;;7.90;45.80;;;;;;5074112;28;20228;-67
2022/03/22 04:21:02;;;;;;;15.88;12.27;;;7.90;45.70;;;;;;5042616;28;20221;-67
2022/03/22 04:23:32;;;;;;;15.60;13.48;;;7.90;45.70;;;;;;5034061;28;20233;-65
2022/03/22 04:25:58;;;;;;;16.92;12.50;;;7.90;45.70;;;;;;5040099;28;20221;-65
2022/03/22 04:33:53;;;;;;;17.17;13.52;;;8.00;45.80;;;;;;5054521;28;20252;-66
2022/03/22 04:36:20;;;;;;;18.20;12.20;;;8.00;45.70;;;;;;5054000;28;20228;-66
2022/03/22 04:38:48;;;;;;;16.48;14.13;;;8.00;45.70;;;;;;5054217;28;20229;-66
2022/03/22 04:41:15;;;;;;;16.58;14.75;;;8.00;45.80;;;;;;5053748;28;20244;-66
2022/03/22 04:43:42;;;;;;;19.05;14.70;;;8.00;45.80;;;;;;5054183;28;20554;-66
2022/03/22 04:46:09;;;;;;;19.27;13.20;;;8.00;45.90;;;;;;5053766;28;20235;-67
2022/03/22 04:48:43;;;;;;;24.88;13.98;;;7.90;45.90;;;;;;5054213;28;20292;-66
2022/03/22 04:56:46;;;;;;;15.05;13.15;;;7.90;46.10;;;;;;5053984;28;20236;-66
2022/03/22 04:59:14;;;;;;;15.32;12.90;;;7.90;46.20;;;;;;5054097;28;20609;-66
2022/03/22 05:01:42;;;;;;;14.30;12.80;;;7.90;46.40;;;;;;5053465;28;20230;-66
2022/03/22 05:04:09;;;;;;;19.88;13.70;;;7.90;46.40;;;;;;5053799;28;20221;-66
2022/03/22 05:06:37;;;;;;;17.20;12.60;;;7.90;46.50;;;;;;5053773;28;20228;-66
2022/03/22 05:09:06;;;;;;;15.13;13.18;;;7.90;46.50;;;;;;5053718;28;20227;-66
2022/03/22 05:11:32;;;;;;;18.52;13.90;;;7.80;46.60;;;;;;5053435;28;20243;-66
2022/03/22 05:14:00;;;;;;;20.13;13.93;;;7.80;46.80;;;;;;5052995;28;21219;-66
2022/03/22 05:16:29;;;;;;;14.93;12.30;;;7.80;46.80;;;;;;5053704;28;20221;-66
2022/03/22 05:18:57;;;;;;;17.02;13.55;;;7.80;46.80;;;;;;5053336;28;20225;-66
2022/03/22 05:21:25;;;;;;;14.18;12.68;;;7.80;46.90;;;;;;5034441;28;20309;-65
2022/03/22 05:23:55;;;;;;;19.30;14.38;;;7.70;47.00;;;;;;5033169;28;20259;-66
2022/03/22 05:26:24;;;;;;;21.05;14.02;;;7.70;47.10;;;;;;5042492;28;20283;-65
2022/03/22 05:28:50;;;;;;;19.08;13.73;;;7.70;47.10;;;;;;5053190;28;20228;-66
2022/03/22 05:31:18;;;;;;;17.10;14.25;;;7.70;47.20;;;;;;5053484;28;20240;-66
2022/03/22 05:33:45;;;;;;;17.38;15.57;;;7.70;47.20;;;;;;5053096;28;20232;-66
2022/03/22 05:36:12;;;;;;;15.43;13.70;;;7.70;47.30;;;;;;5053609;28;20572;-66
2022/03/22 05:38:39;;;;;;;19.60;16.13;;;7.70;47.40;;;;;;5053557;28;20299;-66
2022/03/22 05:41:06;;;;;;;19.83;14.60;;;7.70;47.40;;;;;;5052809;28;20699;-65
2022/03/22 05:43:35;;;;;;;18.40;15.00;;;7.80;47.40;;;;;;5053216;28;20228;-66
2022/03/22 05:46:02;;;;;;;21.00;14.90;;;7.80;47.50;;;;;;5052497;28;20224;-66
2022/03/22 05:48:31;;;;;;;19.33;14.63;;;7.80;47.60;;;;;;5052103;28;20228;-66
2022/03/22 05:50:58;;;;;;;17.40;13.82;;;7.70;47.60;;;;;;5052568;28;20236;-65
2022/03/22 05:53:25;;;;;;;19.02;15.05;;;7.70;47.70;;;;;;5052863;28;20228;-65
2022/03/22 05:55:52;;;;;;;16.90;13.80;;;7.70;47.70;;;;;;5052666;28;20224;-66
2022/03/22 05:58:19;;;;;;;17.50;14.40;;;7.70;47.70;;;;;;5053169;28;20235;-66
2022/03/22 06:00:47;;;;;;;18.75;16.52;;;7.70;47.70;;;;;;5052505;28;20231;-66
2022/03/22 06:03:14;;;;;;;19.02;14.63;;;7.70;47.80;;;;;;5052834;28;20220;-66
2022/03/22 06:05:42;;;;;;;18.77;13.70;;;7.70;47.90;;;;;;5052971;28;20229;-66
2022/03/22 06:08:09;;;;;;;22.25;15.80;;;7.70;47.90;;;;;;5052686;28;20747;-66
2022/03/22 06:10:36;;;;;;;15.48;13.88;;;7.70;47.90;;;;;;5052900;28;20255;-66
2022/03/22 06:13:03;;;;;;;24.17;16.30;;;7.70;48.00;;;;;;5051464;28;20263;-66
2022/03/22 06:15:32;;;;;;;21.13;15.70;;;7.70;48.00;;;;;;5051943;28;20233;-66
2022/03/22 06:18:01;;;;;;;17.48;15.00;;;7.70;48.10;;;;;;5050451;28;20225;-66
2022/03/22 06:20:31;;;;;;;16.20;14.60;;;7.80;47.90;;;;;;5051985;28;20237;-66
2022/03/22 06:22:58;;;;;;;19.90;15.90;;;7.80;48.40;;;;;;5051498;28;20758;-65
2022/03/22 06:25:25;;;;;;;18.80;15.00;;;7.80;47.70;;;;;;5040096;28;20244;-66
2022/03/22 06:27:53;;;;;;;15.52;13.90;;;7.80;47.60;;;;;;5032182;28;20233;-66
2022/03/22 06:30:21;;;;;;;20.17;15.55;;;7.90;47.60;;;;;;5052832;28;20225;-66
2022/03/22 06:32:50;;;;;;;18.98;15.10;;;7.90;47.50;;;;;;5032295;28;20226;-66
2022/03/22 06:35:19;;;;;;;18.55;14.35;;;7.90;47.30;;;;;;5032727;28;20217;-66
2022/03/22 06:37:48;;;;;;;16.33;14.73;;;7.90;47.30;;;;;;5032337;28;20229;-67
2022/03/22 06:40:17;;;;;;;16.42;14.73;;;7.90;47.10;;;;;;5032408;28;20283;-66
2022/03/22 06:42:44;;;;;;;24.20;18.10;;;8.00;47.10;;;;;;5032550;28;20229;-67
2022/03/22 06:45:12;;;;;;;21.17;16.10;;;8.00;47.20;;;;;;5032292;28;20221;-65
2022/03/22 06:47:40;;;;;;;18.75;15.15;;;8.20;47.20;;;;;;5032286;28;20232;-66
2022/03/22 06:50:09;;;;;;;16.67;14.80;;;8.10;46.90;;;;;;5032145;28;20240;-66
2022/03/22 06:52:38;;;;;;;17.10;14.45;;;8.20;46.90;;;;;;5048458;28;20565;-66
2022/03/22 06:55:06;;;;;;;16.25;14.32;;;8.20;46.80;;;;;;5051217;28;20236;-65
2022/03/22 06:57:33;;;;;;;22.83;14.68;;;8.30;46.60;;;;;;5056360;28;20224;-66
2022/03/22 07:00:00;;;;;;;15.98;14.27;;;8.30;46.50;;;;;;5055979;28;20212;-66
2022/03/22 07:02:27;;;;;;;16.90;14.50;;;8.40;46.50;;;;;;5056385;28;20232;-66
2022/03/22 07:04:54;;;;;;;18.02;15.00;;;8.40;46.30;;;;;;5055743;28;20225;-65
2022/03/22 07:07:22;;;;;;;18.20;14.65;;;8.40;46.30;;;;;;5055767;28;20221;-66
2022/03/22 07:09:50;;;;;;;20.85;15.00;;;8.50;46.30;;;;;;5055786;28;20291;-66
2022/03/22 07:12:17;;;;;;;19.63;14.70;;;8.60;46.20;;;;;;5056287;28;20225;-66
2022/03/22 07:14:44;;;;;;;18.25;14.75;;;8.70;46.20;;;;;;5056019;28;20243;-66
2022/03/22 07:17:11;;;;;;;17.75;15.25;;;8.70;46.10;;;;;;5055718;28;20224;-66
2022/03/22 07:19:39;;;;;;;17.70;14.13;;;8.70;45.80;;;;;;5055950;28;20232;-66
2022/03/22 07:22:07;;;;;;;17.70;14.82;;;8.80;45.80;;;;;;5055137;28;20232;-66
2022/03/22 07:24:34;;;;;;;18.98;15.30;;;8.80;45.60;;;;;;5055925;28;20697;-66
2022/03/22 07:27:02;;;;;;;17.65;14.93;;;8.90;45.60;;;;;;5055535;28;20217;-66
2022/03/22 07:29:31;;;;;;;22.17;15.65;;;8.90;45.50;;;;;;5055974;28;20252;-66
2022/03/22 07:31:59;;;;;;;21.90;16.98;;;8.90;45.40;;;;;;5055390;28;20236;-66
2022/03/22 07:34:27;;;;;;;22.80;16.65;;;9.00;45.40;;;;;;5055711;28;20312;-66
2022/03/22 07:36:54;;;;;;;23.65;17.67;;;9.00;45.30;;;;;;5055385;28;20229;-66
2022/03/22 07:39:23;;;;;;;21.10;16.48;;;9.10;45.20;;;;;;5055690;28;20757;-66
2022/03/22 07:41:51;;;;;;;28.27;17.40;;;9.10;45.00;;;;;;5055625;28;20550;-66
2022/03/22 07:44:19;;;;;;;23.95;15.60;;;9.20;44.70;;;;;;5055344;28;20220;-66
2022/03/22 07:46:47;;;;;;;21.55;15.95;;;9.30;44.70;;;;;;5055612;28;20224;-66
2022/03/22 07:54:43;;;;;;;23.75;14.90;;;9.50;44.40;;;;;;5055508;28;20235;-66
2022/03/22 07:57:10;;;;;;;19.50;14.52;;;9.50;44.20;;;;;;5054844;28;20229;-66
2022/03/22 07:59:38;;;;;;;16.42;13.70;;;9.60;44.20;;;;;;5055384;28;20235;-67
2022/03/22 08:02:05;;;;;;;21.77;13.15;;;9.70;43.80;;;;;;5054986;28;20251;-67
2022/03/22 08:04:32;;;;;;;14.65;13.05;;;9.90;43.90;;;;;;5055134;28;20220;-66
2022/03/22 08:06:59;;;;;;;15.60;13.90;;;10.00;42.70;;;;;;5053929;28;20229;-66
2022/03/22 08:09:26;;;;;;;17.88;13.93;;;10.10;42.50;;;;;;5055162;28;20229;-66
2022/03/22 08:11:53;;;;;;;21.25;16.05;;;10.10;41.70;;;;;;5054991;28;20687;-66
2022/03/22 08:14:20;;;;;;;25.67;22.20;;;10.20;41.90;;;;;;5054595;28;20667;-66
2022/03/22 08:16:49;;;;;;;20.55;18.35;;;10.30;42.20;;;;;;5054820;28;20231;-66
2022/03/22 08:19:18;;;;;;;13.48;12.18;;;10.40;42.30;;;;;;5054412;28;20232;-66
2022/03/22 08:21:45;;;;;;;15.98;14.27;;;10.50;41.20;;;;;;5054613;28;20259;-67
2022/03/22 08:24:12;;;;;;;16.70;13.30;;;10.60;40.80;;;;;;5054585;28;20282;-66
2022/03/22 08:26:40;;;;;;;13.38;12.07;;;10.60;39.70;;;;;;5054737;28;20225;-67
2022/03/22 08:29:07;;;;;;;13.95;12.50;;;10.70;39.60;;;;;;5054436;28;20721;-67
2022/03/22 08:31:35;;;;;;;14.98;13.45;;;10.70;39.10;;;;;;5054466;28;20233;-66
2022/03/22 08:34:04;;;;;;;16.25;13.95;;;10.80;39.30;;;;;;5054320;28;20258;-66
2022/03/22 08:36:33;;;;;;;13.93;11.20;;;10.90;39.10;;;;;;5054783;28;20691;-66
2022/03/22 08:39:00;;;;;;;13.60;12.18;;;11.00;39.50;;;;;;5053934;28;20315;-67
2022/03/22 08:41:30;;;;;;;13.35;12.05;;;11.10;38.20;;;;;;5054775;28;20223;-66
2022/03/22 08:43:56;;;;;;;15.02;13.45;;;11.20;38.40;;;;;;5054559;28;20236;-66
2022/03/22 08:46:24;;;;;;;14.95;12.38;;;11.30;38.40;;;;;;5054265;28;20904;-66
2022/03/22 08:48:55;;;;;;;15.75;14.07;;;11.30;38.00;;;;;;5054289;28;20247;-66
2022/03/22 08:51:25;;;;;;;15.65;14.15;;;11.40;38.20;;;;;;5053996;28;20228;-66
2022/03/22 08:53:53;;;;;;;16.75;12.45;;;11.50;37.40;;;;;;5054316;28;20682;-66
2022/03/22 08:56:22;;;;;;;14.13;12.35;;;11.60;37.50;;;;;;5053635;28;20228;-66
2022/03/22 08:58:52;;;;;;;13.05;11.80;;;11.60;37.20;;;;;;5054174;28;20221;-66
2022/03/22 09:01:24;;;;;;;13.30;11.20;;;11.60;37.00;;;;;;5053817;28;20225;-66
2022/03/22 09:06:07;;;;;;;18.27;12.13;;;11.70;36.50;;;;;;5053836;28;20231;-66
2022/03/22 09:06:38;;;;;;;15.18;12.05;;;11.70;36.70;;;;;;5054047;28;20216;-66
2022/03/22 09:09:05;;;;;;;15.20;12.85;;;11.90;36.80;;;;;;5053506;28;20225;-66
2022/03/22 09:11:33;;;;;;;14.57;10.88;;;11.90;36.80;;;;;;5054043;28;20231;-66
2022/03/22 09:14:00;;;;;;;15.77;10.90;;;12.00;36.70;;;;;;5053398;28;20753;-66
2022/03/22 09:16:28;;;;;;;14.63;12.15;;;12.20;36.90;;;;;;5053739;28;20220;-66
2022/03/22 09:18:56;;;;;;;14.07;11.25;;;12.20;36.50;;;;;;5053581;28;20370;-66
2022/03/22 09:21:23;;;;;;;17.48;11.82;;;12.20;36.00;;;;;;5053509;28;20228;-66
2022/03/22 09:23:51;;;;;;;13.10;11.70;;;12.20;35.00;;;;;;5053275;28;20303;-66
2022/03/22 09:26:19;;;;;;;13.00;11.52;;;12.20;35.00;;;;;;5053796;28;20566;-65
2022/03/22 09:28:45;;;;;;;14.55;11.55;;;12.20;35.10;;;;;;5053251;28;20583;-66
2022/03/22 09:31:12;;;;;;;13.40;12.00;;;12.30;35.40;;;;;;5053721;28;20299;-65
2022/03/22 09:33:39;;;;;;;12.05;10.85;;;12.30;34.70;;;;;;5053746;28;20224;-65
2022/03/22 09:36:06;;;;;;;12.55;11.27;;;12.40;34.70;;;;;;5053098;28;20658;-65
2022/03/22 09:38:33;;;;;;;13.98;12.38;;;12.50;35.40;;;;;;5053341;28;20228;-65
2022/03/22 09:41:02;;;;;;;15.55;12.15;;;12.60;35.50;;;;;;5053054;28;20351;-65
2022/03/22 09:43:30;;;;;;;11.48;10.27;;;12.80;35.90;;;;;;5053339;28;20679;-65
2022/03/22 09:45:58;;;;;;;11.95;10.73;;;12.90;36.10;;;;;;5052963;28;20725;-65
2022/03/22 09:48:27;;;;;;;10.82;9.73;;;13.00;35.70;;;;;;5053332;28;20221;-65
2022/03/22 09:53:38;;;;;;;11.65;10.38;;;13.10;35.20;;;;;;5053217;28;20662;-65
2022/03/22 09:56:08;;;;;;;11.75;10.50;;;13.20;34.20;;;;;;5052761;28;20224;-65
2022/03/22 09:58:35;;;;;;;13.50;11.48;;;13.20;34.40;;;;;;5053210;28;20239;-65
2022/03/22 10:01:02;;;;;;;12.85;11.57;;;13.30;34.20;;;;;;5052602;28;20282;-64
2022/03/22 10:03:28;;;;;;;11.55;10.52;;;13.30;34.00;;;;;;5053263;28;20220;-65
2022/03/22 10:06:00;;;;;;;12.10;10.40;;;13.40;34.30;;;;;;5052423;28;20239;-66
2022/03/22 10:08:27;;;;;;;12.93;11.57;;;13.50;34.40;;;;;;5053009;28;20232;-66
2022/03/22 10:10:55;;;;;;;13.83;10.93;;;13.60;34.50;;;;;;5052538;28;20228;-65
2022/03/22 10:13:23;;;;;;;15.40;11.35;;;13.60;33.60;;;;;;5052947;28;20524;-65
2022/03/22 10:15:50;;;;;;;11.70;10.60;;;13.70;33.30;;;;;;5052072;28;20236;-66
2022/03/22 10:18:24;;;;;;;12.73;11.30;;;13.70;32.90;;;;;;5052899;28;20536;-65
2022/03/22 10:21:00;;;;;;;13.93;11.23;;;13.70;33.10;;;;;;5052241;28;20225;-65
2022/03/22 10:23:27;;;;;;;12.73;10.13;;;13.80;33.20;;;;;;5052555;28;20286;-66
2022/03/22 10:26:04;;;;;;;11.38;10.27;;;13.70;31.70;;;;;;5052152;28;20216;-66
2022/03/22 10:28:32;;;;;;;12.02;10.48;;;13.60;31.20;;;;;;5052870;28;20235;-66
2022/03/22 10:30:59;;;;;;;11.35;10.27;;;13.60;31.50;;;;;;5051759;28;20213;-66
2022/03/22 10:33:26;;;;;;;12.40;9.95;;;13.60;31.70;;;;;;5052798;28;20251;-66
2022/03/22 10:35:53;;;;;;;10.50;9.60;;;13.70;32.00;;;;;;5052068;28;20232;-65
2022/03/22 10:38:20;;;;;;;14.00;11.00;;;13.90;32.20;;;;;;5052594;28;20566;-66
2022/03/22 10:40:49;;;;;;;11.15;10.07;;;13.90;31.10;;;;;;5052093;28;20240;-66
2022/03/22 10:43:18;;;;;;;14.32;10.63;;;13.90;31.10;;;;;;5052736;28;20615;-66
2022/03/22 10:45:47;;;;;;;12.95;11.65;;;14.00;31.30;;;;;;5052470;28;20795;-66
2022/03/22 10:48:18;;;;;;;10.85;9.82;;;14.20;31.80;;;;;;5052174;28;20651;-66
2022/03/22 10:50:46;;;;;;;11.60;10.50;;;14.20;31.50;;;;;;5052423;28;20240;-66
2022/03/22 10:53:16;;;;;;;10.50;9.50;;;14.30;31.80;;;;;;5051846;28;20228;-66
2022/03/22 10:55:43;;;;;;;11.60;10.50;;;14.40;31.70;;;;;;5052229;28;20295;-66
2022/03/22 10:58:12;;;;;;;10.67;9.63;;;14.50;31.90;;;;;;5051994;28;20463;-66
2022/03/22 11:00:43;;;;;;;10.97;9.87;;;14.60;32.00;;;;;;5052372;28;20471;-66
2022/03/22 11:03:12;;;;;;;11.03;10.03;;;14.70;32.20;;;;;;5051828;28;20474;-66
2022/03/22 11:05:41;;;;;;;12.53;11.00;;;14.70;31.70;;;;;;5052587;28;20470;-66
2022/03/22 11:08:08;;;;;;;12.90;11.70;;;14.80;31.90;;;;;;5052013;28;20467;-66
2022/03/22 11:10:35;;;;;;;14.57;11.77;;;14.70;32.10;;;;;;5052046;28;20802;-65
2022/03/22 11:13:05;;;;;;;12.47;11.20;;;14.80;32.30;;;;;;5051826;28;20479;-65
2022/03/22 11:15:36;;;;;;;12.23;10.93;;;14.90;31.80;;;;;;5052217;28;20475;-66
2022/03/22 11:18:05;;;;;;;13.23;10.07;;;14.90;30.90;;;;;;5051831;28;20459;-65
2022/03/22 11:20:34;;;;;;;11.10;9.80;;;14.80;30.60;;;;;;5052100;28;20965;-65
2022/03/22 11:23:01;;;;;;;10.77;9.70;;;14.90;30.90;;;;;;5051614;28;20482;-66
2022/03/22 11:25:31;;;;;;;15.10;10.57;;;15.00;31.90;;;;;;5052070;28;20957;-65
2022/03/22 11:28:00;;;;;;;10.87;9.83;;;15.00;30.40;;;;;;5050421;28;20482;-65
2022/03/22 11:30:30;;;;;;;9.57;8.67;;;15.10;29.90;;;;;;5031963;28;20483;-66
2022/03/22 11:35:52;;;;;;;14.60;9.30;;;15.20;29.80;;;;;;5049846;28;20473;-66
2022/03/22 11:38:40;;;;;;;10.80;8.47;;;15.30;29.10;;;;;;5050106;28;20462;-66
2022/03/22 11:44:09;;;;;;;10.47;9.47;;;15.40;28.90;;;;;;5033205;28;20478;-66
2022/03/22 11:46:36;;;;;;;10.27;9.20;;;15.50;29.40;;;;;;5035348;28;20471;-66
2022/03/22 11:49:13;;;;;;;10.90;8.10;;;15.50;28.90;;;;;;5035145;28;20472;-66
2022/03/22 11:51:49;;;;;;;9.00;8.17;;;15.60;29.20;;;;;;5035335;28;20506;-66
2022/03/22 11:54:16;;;;;;;10.43;9.43;;;15.70;29.30;;;;;;5042878;28;20462;-66
2022/03/22 11:56:47;;;;;;;10.40;8.13;;;15.70;29.20;;;;;;5035271;28;20464;-66
2022/03/22 11:59:16;;;;;;;11.47;9.00;;;15.80;29.10;;;;;;5035170;28;20480;-67
2022/03/22 12:01:54;;;;;;;12.00;9.40;;;15.80;28.90;;;;;;5035361;28;20534;-66
2022/03/22 12:04:21;;;;;;;11.27;10.03;;;15.80;28.80;;;;;;5035000;28;20471;-66
2022/03/22 12:06:49;;;;;;;11.33;10.23;;;15.80;28.80;;;;;;5035277;28;20471;-66
2022/03/22 12:09:16;;;;;;;12.37;11.07;;;15.80;29.10;;;;;;5034948;28;20464;-67
2022/03/22 12:11:50;;;;;;;10.40;9.10;;;15.80;29.10;;;;;;5035367;28;20476;-67
2022/03/22 12:14:26;;;;;;;12.53;10.10;;;15.80;28.90;;;;;;5034647;28;20478;-66
2022/03/22 12:16:53;;;;;;;12.60;9.90;;;15.90;29.00;;;;;;5035255;28;20573;-66
2022/03/22 12:19:25;;;;;;;11.17;10.07;;;16.00;28.70;;;;;;5034521;28;20468;-66
2022/03/22 12:21:55;;;;;;;10.57;9.60;;;16.00;28.90;;;;;;5034381;28;20507;-66
2022/03/22 12:24:23;;;;;;;12.70;10.50;;;16.10;28.90;;;;;;5051860;28;20459;-65
2022/03/22 12:26:50;;;;;;;11.27;9.97;;;16.20;29.00;;;;;;5054699;28;21023;-65
2022/03/22 12:29:16;;;;;;;10.07;9.07;;;16.30;29.30;;;;;;5054530;28;20467;-66
2022/03/22 12:31:50;;;;;;;10.73;8.80;;;16.30;28.70;;;;;;5054366;28;20814;-67
2022/03/22 12:34:18;;;;;;;10.17;9.10;;;16.20;28.60;;;;;;5054195;28;20468;-65
2022/03/22 12:36:45;;;;;;;9.57;8.67;;;16.20;28.60;;;;;;5054363;28;20478;-65
2022/03/22 12:39:13;;;;;;;12.27;8.63;;;16.20;28.40;;;;;;5054119;28;20552;-66
2022/03/22 12:41:43;;;;;;;8.47;7.77;;;16.20;28.20;;;;;;5064623;28;20812;-66
2022/03/22 12:44:10;;;;;;;9.90;8.30;;;16.30;28.10;;;;;;5064292;28;20962;-66
2022/03/22 12:46:37;;;;;;;9.77;8.30;;;16.40;27.90;;;;;;5034644;28;20472;-65
2022/03/22 12:49:10;;;;;;;9.87;8.97;;;16.40;28.00;;;;;;5034263;28;20483;-66
2022/03/22 12:51:38;;;;;;;11.80;8.70;;;16.50;28.30;;;;;;5034223;28;20469;-66
2022/03/22 12:54:06;;;;;;;11.00;8.77;;;16.50;28.00;;;;;;5033540;28;20471;-66
2022/03/22 12:56:34;;;;;;;9.00;8.20;;;16.60;28.20;;;;;;5034174;28;20469;-66
2022/03/22 12:59:01;;;;;;;8.63;7.43;;;16.60;28.10;;;;;;5033989;28;20476;-66
2022/03/22 13:01:38;;;;;;;10.27;9.20;;;16.70;27.70;;;;;;5034054;28;20970;-66
2022/03/22 13:04:05;;;;;;;9.23;8.00;;;16.80;27.60;;;;;;5033662;28;20858;-66
2022/03/22 13:06:34;;;;;;;8.27;7.43;;;16.80;26.90;;;;;;5034006;28;20976;-66
2022/03/22 13:11:57;;;;;;;8.37;7.50;;;16.90;26.90;;;;;;5032585;28;20487;-65
2022/03/22 13:17:08;;;;;;;9.00;8.30;;;16.90;27.10;;;;;;5033263;28;21150;-66
2022/03/22 13:19:39;;;;;;;7.20;6.60;;;17.00;27.50;;;;;;5033783;28;20464;-66
2022/03/22 13:22:16;;;;;;;7.50;6.80;;;17.00;27.10;;;;;;5032824;28;20507;-66